createdAt,value
2022-09-04T00:01:59.435Z,0.85
2022-09-04T00:04:30.548Z,1.05
2022-09-04T00:07:17.360Z,0.80
2022-09-04T00:10:04.243Z,0.82
2022-09-04T00:12:41.339Z,1.20
2022-09-04T00:15:13.998Z,0.90
2022-09-04T00:17:54.062Z,0.90
2022-09-04T00:20:32.934Z,0.90
2022-09-04T00:23:09.611Z,1.05
2022-09-04T00:25:47.248Z,0.90
2022-09-04T00:28:29.650Z,0.77
2022-09-04T00:31:06.943Z,1.00
2022-09-04T00:33:41.580Z,1.00
2022-09-04T00:36:09.980Z,1.00
2022-09-04T00:38:55.118Z,0.90
2022-09-04T00:41:32.845Z,0.90
2022-09-04T00:44:25.789Z,0.90
2022-09-04T00:46:59.599Z,0.88
2022-09-04T00:50:15.803Z,0.98
2022-09-04T00:53:10.227Z,1.00
2022-09-04T00:56:12.668Z,0.95
2022-09-04T00:59:10.212Z,0.70
2022-09-04T01:01:36.907Z,0.95
2022-09-04T01:04:26.509Z,1.27
2022-09-04T01:06:53.190Z,0.90
2022-09-04T01:09:31.906Z,0.90
2022-09-04T01:12:13.546Z,0.85
2022-09-04T01:14:55.337Z,1.10
2022-09-04T01:17:33.595Z,1.10
2022-09-04T01:20:36.587Z,0.93
2022-09-04T01:23:09.121Z,1.15
2022-09-04T01:26:00.736Z,0.90
2022-09-04T01:28:33.410Z,0.90
2022-09-04T01:31:22.569Z,1.02
2022-09-04T01:34:02.928Z,0.90
2022-09-04T01:36:44.847Z,0.93
2022-09-04T01:39:11.529Z,1.08
2022-09-04T01:41:46.879Z,0.88
2022-09-04T01:44:13.977Z,0.95
2022-09-04T01:46:59.386Z,0.90
2022-09-04T01:49:32.638Z,1.00
2022-09-04T01:52:08.315Z,0.90
2022-09-04T01:54:42.783Z,0.90
2022-09-04T01:57:31.170Z,1.30
2022-09-04T02:00:17.738Z,1.00
2022-09-04T02:02:56.793Z,0.90
2022-09-04T02:05:31.801Z,1.02
2022-09-04T02:08:20.414Z,0.60
2022-09-04T02:11:14.179Z,0.90
2022-09-04T02:13:44.968Z,0.85
2022-09-04T02:16:26.524Z,1.00
2022-09-04T02:19:12.050Z,1.00
2022-09-04T02:22:17.559Z,1.00
2022-09-04T02:25:06.040Z,1.13
2022-09-04T02:27:49.434Z,1.10
2022-09-04T02:30:20.689Z,0.82
2022-09-04T02:33:06.998Z,0.90
2022-09-04T02:35:38.548Z,1.10
2022-09-04T02:38:08.192Z,1.20
2022-09-04T02:40:51.138Z,1.10
2022-09-04T02:43:35.495Z,1.08
2022-09-04T02:46:27.137Z,1.13
2022-09-04T02:49:30.109Z,1.13
2022-09-04T02:52:41.983Z,1.10
2022-09-04T02:55:25.494Z,1.00
2022-09-04T02:58:22.784Z,1.33
2022-09-04T03:01:07.553Z,1.65
2022-09-04T03:04:11.192Z,1.30
2022-09-04T03:06:49.019Z,1.52
2022-09-04T03:09:23.757Z,1.50
2022-09-04T03:11:57.708Z,2.20
2022-09-04T03:14:51.746Z,1.90
2022-09-04T03:17:48.037Z,1.65
2022-09-04T03:20:22.799Z,1.63
2022-09-04T03:23:02.235Z,1.50
2022-09-04T03:25:50.092Z,1.67
2022-09-04T03:28:31.124Z,1.42
2022-09-04T03:31:04.148Z,1.60
2022-09-04T03:33:38.332Z,1.30
2022-09-04T03:36:19.078Z,1.38
2022-09-04T03:39:11.118Z,1.00
2022-09-04T03:42:05.491Z,1.23
2022-09-04T03:45:03.137Z,1.20
2022-09-04T03:48:08.210Z,1.10
2022-09-04T03:50:53.397Z,1.25
2022-09-04T03:53:57.574Z,1.02
2022-09-04T03:56:30.411Z,1.10
2022-09-04T03:59:29.092Z,3.22
2022-09-04T04:01:55.670Z,1.63
2022-09-04T04:04:44.173Z,1.23
2022-09-04T04:07:19.854Z,1.00
2022-09-04T04:09:59.834Z,1.08
2022-09-04T04:12:45.068Z,1.27
2022-09-04T04:15:33.232Z,1.00
2022-09-04T04:18:13.338Z,1.15
2022-09-04T04:20:52.450Z,1.30
2022-09-04T04:23:37.990Z,1.30
2022-09-04T04:26:10.983Z,1.10
2022-09-04T04:28:43.326Z,1.05
2022-09-04T04:31:26.793Z,1.27
2022-09-04T04:34:24.814Z,1.02
2022-09-04T04:37:00.754Z,1.00
2022-09-04T04:39:54.084Z,1.33
2022-09-04T04:42:23.551Z,1.00
2022-09-04T04:45:38.186Z,1.00
2022-09-04T04:48:08.154Z,1.10
2022-09-04T04:51:03.836Z,1.13
2022-09-04T04:53:57.613Z,1.40
2022-09-04T04:56:24.248Z,1.20
2022-09-04T04:58:55.157Z,1.08
2022-09-04T05:01:45.710Z,1.20
2022-09-04T05:04:37.318Z,1.50
2022-09-04T05:07:15.442Z,1.20
2022-09-04T05:10:08.271Z,1.20
2022-09-04T05:13:13.923Z,1.20
2022-09-04T05:16:11.624Z,1.35
2022-09-04T05:19:07.241Z,1.10
2022-09-04T05:21:33.816Z,1.17
2022-09-04T05:24:12.060Z,1.25
2022-09-04T05:27:11.309Z,1.35
2022-09-04T05:29:56.762Z,1.58
2022-09-04T05:32:28.696Z,1.30
2022-09-04T05:35:13.859Z,0.90
2022-09-04T05:38:08.069Z,1.27
2022-09-04T05:40:47.070Z,0.85
2022-09-04T05:43:36.604Z,1.27
2022-09-04T05:46:24.378Z,1.05
2022-09-04T05:49:09.408Z,1.10
2022-09-04T05:51:38.829Z,1.20
2022-09-04T05:54:32.371Z,1.15
2022-09-04T05:57:47.326Z,1.30
2022-09-04T06:00:19.762Z,1.00
2022-09-04T06:03:17.638Z,1.30
2022-09-04T06:05:47.339Z,1.40
2022-09-04T06:08:49.211Z,1.20
2022-09-04T06:11:43.715Z,1.30
2022-09-04T06:14:54.384Z,1.27
2022-09-04T06:17:53.212Z,1.30
2022-09-04T06:20:31.758Z,1.25
2022-09-04T06:23:11.784Z,1.52
2022-09-04T06:25:56.622Z,1.20
2022-09-04T06:28:34.871Z,1.35
2022-09-04T06:31:24.593Z,1.42
2022-09-04T06:33:57.342Z,1.30
2022-09-04T06:36:50.880Z,1.30
2022-09-04T06:39:35.223Z,1.17
2022-09-04T06:42:11.032Z,1.25
2022-09-04T06:44:48.946Z,1.10
2022-09-04T06:47:27.621Z,1.73
2022-09-04T06:49:54.232Z,1.25
2022-09-04T06:52:49.203Z,1.20
2022-09-04T06:55:38.978Z,1.42
2022-09-04T06:58:26.960Z,1.10
2022-09-04T07:01:08.847Z,1.20
2022-09-04T07:03:50.754Z,1.08
2022-09-04T07:06:46.733Z,1.30
2022-09-04T07:09:47.193Z,1.40
2022-09-04T07:12:52.132Z,1.77
2022-09-04T07:15:48.643Z,1.20
2022-09-04T07:18:36.073Z,1.38
2022-09-04T07:21:28.591Z,1.65
2022-09-04T07:24:19.785Z,1.48
2022-09-04T07:26:59.020Z,1.60
2022-09-04T07:29:42.347Z,1.63
2022-09-04T07:32:20.631Z,1.63
2022-09-04T07:35:02.775Z,1.60
2022-09-04T07:37:50.285Z,1.50
2022-09-04T07:40:21.841Z,1.55
2022-09-04T07:43:57.005Z,1.60
2022-09-04T07:46:48.259Z,1.55
2022-09-04T07:49:17.808Z,1.58
2022-09-04T07:52:14.457Z,1.50
2022-09-04T07:54:59.987Z,1.70
2022-09-04T07:57:44.708Z,1.60
2022-09-04T08:00:22.666Z,1.85
2022-09-04T08:02:58.197Z,2.10
2022-09-04T08:05:33.888Z,1.80
2022-09-04T08:08:19.406Z,1.52
2022-09-04T08:11:02.454Z,1.98
2022-09-04T08:13:44.562Z,1.92
2022-09-04T08:16:28.591Z,1.67
2022-09-04T08:19:07.315Z,2.10
2022-09-04T08:21:39.476Z,1.98
2022-09-04T08:24:33.065Z,2.10
2022-09-04T08:27:24.071Z,2.05
2022-09-04T08:30:05.635Z,2.05
2022-09-04T08:32:57.036Z,1.88
2022-09-04T08:35:29.632Z,1.92
2022-09-04T08:38:11.961Z,1.88
2022-09-04T08:40:57.751Z,1.90
2022-09-04T08:43:54.558Z,2.05
2022-09-04T08:46:59.325Z,2.50
2022-09-04T08:49:29.199Z,1.90
2022-09-04T08:52:18.874Z,1.98
2022-09-04T08:54:59.095Z,2.10
2022-09-04T08:57:31.775Z,2.13
2022-09-04T09:00:19.687Z,2.10
2022-09-04T09:02:58.481Z,2.00
2022-09-04T09:05:40.066Z,1.80
2022-09-04T09:08:28.536Z,1.95
2022-09-04T09:11:15.499Z,2.10
2022-09-04T09:17:00.170Z,2.30
2022-09-04T09:19:33.844Z,2.10
2022-09-04T09:22:06.509Z,2.10
2022-09-04T09:25:04.040Z,2.10
2022-09-04T09:27:46.584Z,2.20
2022-09-04T09:30:24.200Z,2.10
2022-09-04T09:33:09.802Z,2.10
2022-09-04T09:35:55.745Z,2.00
2022-09-04T09:38:41.731Z,2.50
2022-09-04T09:41:20.219Z,2.08
2022-09-04T09:44:01.864Z,2.40
2022-09-04T09:46:47.226Z,2.00
2022-09-04T09:49:25.087Z,2.30
2022-09-04T09:52:16.559Z,1.95
2022-09-04T09:54:57.108Z,1.88
2022-09-04T09:57:45.250Z,1.90
2022-09-04T10:00:16.938Z,1.90
2022-09-04T10:03:01.795Z,1.77
2022-09-04T10:05:39.513Z,2.08
2022-09-04T10:08:36.050Z,2.03
2022-09-04T10:11:23.693Z,2.15
2022-09-04T10:14:07.147Z,2.45
2022-09-04T10:17:00.607Z,2.00
2022-09-04T10:19:56.503Z,2.10
2022-09-04T10:22:49.146Z,1.90
2022-09-04T10:25:43.375Z,2.33
2022-09-04T10:28:09.936Z,2.10
2022-09-04T10:31:15.275Z,2.15
2022-09-04T10:33:53.832Z,2.15
2022-09-04T10:36:55.492Z,1.85
2022-09-04T10:39:48.420Z,1.95
2022-09-04T10:42:36.306Z,2.00
2022-09-04T10:45:14.186Z,2.00
2022-09-04T10:47:53.159Z,1.90
2022-09-04T10:51:33.405Z,2.28
2022-09-04T10:54:24.552Z,2.60
2022-09-04T10:56:56.940Z,2.03
2022-09-04T10:59:58.847Z,2.30
2022-09-04T11:02:41.053Z,2.08
2022-09-04T11:05:35.870Z,2.17
2022-09-04T11:08:23.642Z,2.45
2022-09-04T11:10:59.107Z,2.20
2022-09-04T11:13:34.670Z,2.10
2022-09-04T11:18:55.899Z,2.30
2022-09-04T11:21:59.042Z,2.05
2022-09-04T11:24:55.715Z,2.17
2022-09-04T11:27:40.332Z,1.95
2022-09-04T11:30:20.544Z,2.30
2022-09-04T11:33:13.059Z,2.10
2022-09-04T11:35:45.359Z,2.13
2022-09-04T11:38:42.967Z,1.98
2022-09-04T11:41:48.767Z,2.17
2022-09-04T11:44:27.340Z,2.13
2022-09-04T11:47:08.943Z,2.20
2022-09-04T11:49:58.996Z,2.28
2022-09-04T11:52:38.909Z,2.00
2022-09-04T11:55:53.475Z,2.33
2022-09-04T11:58:32.024Z,2.10
2022-09-04T12:01:23.715Z,2.30
2022-09-04T12:04:08.970Z,2.03
2022-09-04T12:06:36.274Z,2.20
2022-09-04T12:09:08.724Z,2.10
2022-09-04T12:11:50.841Z,2.08
2022-09-04T12:14:36.003Z,2.00
2022-09-04T12:17:17.727Z,2.17
2022-09-04T12:19:50.692Z,2.25
2022-09-04T12:22:38.798Z,2.10
2022-09-04T12:25:42.764Z,2.38
2022-09-04T12:28:54.717Z,2.28
2022-09-04T12:31:36.423Z,2.20
2022-09-04T12:34:18.474Z,2.30
2022-09-04T12:37:03.826Z,2.42
2022-09-04T12:39:57.528Z,1.92
2022-09-04T12:42:33.123Z,1.90
2022-09-04T12:45:18.450Z,2.63
2022-09-04T12:47:58.270Z,1.92
2022-09-04T12:50:54.051Z,2.10
2022-09-04T12:53:26.945Z,1.92
2022-09-04T12:56:01.049Z,2.30
2022-09-04T12:58:50.343Z,1.88
2022-09-04T13:01:55.465Z,2.20
2022-09-04T13:04:32.688Z,2.10
2022-09-04T13:07:22.838Z,1.90
2022-09-04T13:10:08.345Z,2.10
2022-09-04T13:12:40.846Z,1.92
2022-09-04T13:15:25.966Z,2.05
2022-09-04T13:18:08.286Z,2.03
2022-09-04T13:20:51.755Z,1.90
2022-09-04T13:23:36.935Z,2.10
2022-09-04T13:26:29.812Z,2.03
2022-09-04T13:29:27.491Z,2.35
2022-09-04T13:32:19.482Z,2.20
2022-09-04T13:35:15.973Z,1.77
2022-09-04T13:37:45.948Z,1.98
2022-09-04T13:40:27.863Z,1.90
2022-09-04T13:43:06.400Z,2.05
2022-09-04T13:45:44.195Z,1.95
2022-09-04T13:48:44.296Z,1.85
2022-09-04T13:51:23.150Z,2.13
2022-09-04T13:53:59.091Z,1.90
2022-09-04T13:56:35.047Z,1.83
2022-09-04T13:59:09.720Z,2.00
2022-09-04T14:01:48.028Z,1.92
2022-09-04T14:04:26.364Z,1.67
2022-09-04T14:07:07.026Z,1.80
2022-09-04T14:09:45.251Z,1.80
2022-09-04T14:12:15.526Z,2.00
2022-09-04T14:15:02.054Z,1.80
2022-09-04T14:17:41.420Z,1.95
2022-09-04T14:20:23.088Z,2.17
2022-09-04T14:22:55.989Z,2.03
2022-09-04T14:25:54.662Z,1.80
2022-09-04T14:28:34.252Z,2.38
2022-09-04T14:31:17.914Z,1.80
2022-09-04T14:34:03.871Z,1.95
2022-09-04T14:36:47.956Z,2.10
2022-09-04T14:39:57.897Z,1.70
2022-09-04T14:42:41.514Z,1.88
2022-09-04T14:45:16.302Z,2.20
2022-09-04T14:47:47.461Z,2.42
2022-09-04T14:50:17.340Z,2.08
2022-09-04T14:52:51.962Z,1.80
2022-09-04T14:55:26.953Z,2.00
2022-09-04T14:58:19.837Z,1.85
2022-09-04T15:00:59.863Z,1.65
2022-09-04T15:03:46.086Z,1.80
2022-09-04T15:06:18.566Z,1.70
2022-09-04T15:08:50.607Z,1.80
2022-09-04T15:11:34.656Z,1.70
2022-09-04T15:14:26.236Z,1.90
2022-09-04T15:16:56.676Z,2.28
2022-09-04T15:19:40.840Z,2.00
2022-09-04T15:22:27.087Z,2.03
2022-09-04T15:25:47.890Z,1.83
2022-09-04T15:28:19.863Z,1.73
2022-09-04T15:31:20.444Z,1.75
2022-09-04T15:33:48.548Z,1.83
2022-09-04T15:36:18.195Z,1.65
2022-09-04T15:38:54.136Z,2.00
2022-09-04T15:41:26.934Z,1.80
2022-09-04T15:44:29.692Z,2.08
2022-09-04T15:47:23.187Z,1.73
2022-09-04T15:49:55.402Z,1.85
2022-09-04T15:52:23.863Z,1.70
2022-09-04T15:54:54.661Z,2.00
2022-09-04T15:57:29.475Z,1.67
2022-09-04T16:00:04.179Z,1.87
2022-09-04T16:02:59.393Z,1.70
2022-09-04T16:05:44.748Z,1.98
2022-09-04T16:08:21.041Z,1.88
2022-09-04T16:10:47.849Z,2.30
2022-09-04T16:13:40.578Z,2.30
2022-09-04T16:16:23.909Z,2.60
2022-09-04T16:18:58.520Z,2.47
2022-09-04T16:21:48.188Z,2.30
2022-09-04T16:24:19.770Z,2.33
2022-09-04T16:26:50.775Z,1.85
2022-09-04T16:29:27.626Z,2.17
2022-09-04T16:31:57.667Z,2.00
2022-09-04T16:34:29.339Z,2.38
2022-09-04T16:37:09.577Z,2.30
2022-09-04T16:40:00.840Z,1.83
2022-09-04T16:43:23.141Z,1.95
2022-09-04T16:46:11.174Z,2.08
2022-09-04T16:48:57.894Z,1.85
2022-09-04T16:51:41.107Z,2.13
2022-09-04T16:54:29.046Z,2.30
2022-09-04T16:57:12.773Z,2.17
2022-09-04T16:59:46.197Z,2.30
2022-09-04T17:02:42.585Z,2.30
2022-09-04T17:05:10.332Z,2.72
2022-09-04T17:07:44.812Z,2.38
2022-09-04T17:10:39.337Z,2.75
2022-09-04T17:13:29.065Z,2.58
2022-09-04T17:16:02.373Z,2.42
2022-09-04T17:18:30.859Z,3.03
2022-09-04T17:23:39.260Z,2.70
2022-09-04T17:28:56.419Z,2.65
2022-09-04T17:29:17.546Z,2.42
2022-09-04T17:30:50.477Z,2.80
2022-09-04T17:40:33.941Z,2.45
2022-09-04T17:40:44.299Z,2.85
2022-09-04T17:41:32.378Z,2.58
2022-09-04T17:42:40.378Z,2.92
2022-09-04T17:45:22.279Z,2.65
2022-09-04T17:48:14.818Z,2.80
2022-09-04T17:50:54.759Z,2.30
2022-09-04T17:53:33.507Z,2.60
2022-09-04T17:56:29.031Z,2.55
2022-09-04T17:59:15.958Z,2.63
2022-09-04T18:01:51.541Z,3.08
2022-09-04T18:04:42.404Z,2.85
2022-09-04T18:08:07.666Z,2.72
2022-09-04T18:10:34.258Z,2.50
2022-09-04T18:13:37.133Z,2.78
2022-09-04T18:16:35.586Z,2.65
2022-09-04T18:19:38.246Z,2.33
2022-09-04T18:22:26.004Z,2.33
2022-09-04T18:25:17.925Z,2.58
2022-09-04T18:28:14.065Z,2.58
2022-09-04T18:37:11.981Z,2.47
2022-09-04T18:37:20.789Z,2.65
2022-09-04T18:37:45.660Z,2.22
2022-09-04T18:40:21.528Z,2.30
2022-09-04T18:49:48.737Z,2.30
2022-09-04T18:50:37.648Z,2.50
2022-09-04T18:50:50.777Z,2.08
2022-09-04T18:51:57.308Z,2.30
2022-09-04T18:54:33.784Z,2.60
2022-09-04T18:57:12.256Z,2.30
2022-09-04T18:59:44.544Z,2.15
2022-09-04T19:02:19.792Z,2.50
2022-09-04T19:05:01.641Z,2.10
2022-09-04T19:07:41.730Z,2.50
2022-09-04T19:10:25.717Z,2.70
2022-09-04T19:12:53.756Z,2.40
2022-09-04T19:15:45.524Z,2.58
2022-09-04T19:30:25.080Z,2.38
2022-09-04T19:33:31.939Z,2.60
2022-09-04T19:36:11.793Z,2.40
2022-09-04T19:44:50.323Z,2.67
2022-09-04T19:46:01.273Z,2.30
2022-09-04T19:46:05.459Z,2.55
2022-09-04T19:47:52.033Z,2.60
2022-09-04T19:53:21.909Z,2.78
2022-09-04T19:53:39.644Z,2.53
2022-09-04T19:56:30.416Z,2.35
2022-09-04T19:59:11.710Z,2.58
2022-09-04T20:01:58.121Z,2.42
2022-09-04T20:04:38.640Z,2.60
2022-09-04T20:07:41.712Z,2.72
2022-09-04T20:10:37.416Z,2.63
2022-09-04T20:13:28.957Z,2.38
2022-09-04T20:16:17.057Z,2.25
2022-09-04T20:19:12.087Z,2.33
2022-09-04T20:21:55.330Z,2.75
2022-09-04T20:24:24.672Z,2.50
2022-09-04T20:27:17.475Z,2.67
2022-09-04T20:29:54.651Z,2.30
2022-09-04T20:32:38.030Z,2.67
2022-09-04T20:35:20.523Z,2.70
2022-09-04T20:38:12.417Z,2.72
2022-09-04T20:40:46.282Z,2.40
2022-09-04T20:43:31.765Z,2.22
2022-09-04T20:52:46.018Z,2.70
2022-09-04T20:52:51.290Z,2.42
2022-09-04T20:53:05.659Z,2.30
2022-09-04T20:55:24.474Z,2.38
2022-09-04T21:01:52.954Z,2.28
2022-09-04T21:03:18.063Z,2.47
2022-09-04T21:05:10.791Z,2.40
2022-09-04T21:08:01.709Z,2.40
2022-09-04T21:10:46.947Z,2.00
2022-09-04T21:13:31.815Z,2.20
2022-09-04T21:16:20.042Z,2.17
2022-09-04T21:19:27.986Z,1.98
2022-09-04T21:22:21.698Z,2.20
2022-09-04T21:25:18.654Z,2.00
2022-09-04T21:28:06.789Z,2.00
2022-09-04T21:31:17.256Z,1.98
2022-09-04T21:34:11.999Z,2.15
2022-09-04T21:36:41.578Z,1.88
2022-09-04T21:39:46.901Z,1.98
2022-09-04T21:42:40.998Z,2.10
2022-09-04T21:45:31.867Z,2.30
2022-09-04T21:48:38.490Z,2.33
2022-09-04T21:51:52.660Z,1.80
2022-09-04T21:56:22.739Z,2.00
2022-09-04T22:02:27.225Z,2.17
2022-09-04T22:02:40.285Z,1.50
2022-09-04T22:03:29.431Z,2.10
2022-09-04T22:06:03.869Z,1.70
2022-09-04T22:13:31.243Z,2.20
2022-09-04T22:13:41.160Z,1.70
2022-09-04T22:14:47.193Z,1.75
2022-09-04T22:17:33.178Z,1.85
2022-09-04T22:20:27.986Z,1.70
2022-09-04T22:24:00.129Z,1.65
2022-09-04T22:27:02.366Z,1.75
2022-09-04T22:29:47.162Z,1.85
2022-09-04T22:32:51.278Z,1.60
2022-09-04T22:35:42.030Z,2.10
2022-09-04T22:38:27.170Z,1.80
2022-09-04T22:41:31.401Z,1.75
2022-09-04T22:44:03.872Z,2.10
2022-09-04T22:46:47.984Z,1.80
2022-09-04T22:49:23.280Z,1.60
2022-09-04T22:52:09.922Z,1.80
2022-09-04T22:55:36.270Z,1.90
2022-09-04T22:58:18.869Z,1.80
2022-09-04T23:00:54.706Z,2.00
2022-09-04T23:03:54.294Z,1.63
2022-09-04T23:09:20.124Z,1.83
2022-09-04T23:13:47.317Z,2.10
2022-09-04T23:13:56.902Z,1.67
2022-09-04T23:16:49.468Z,1.50
2022-09-04T23:23:52.147Z,1.60
2022-09-04T23:26:41.495Z,1.80
2022-09-04T23:26:53.818Z,1.60
2022-09-04T23:29:48.205Z,1.70
2022-09-04T23:32:36.142Z,1.73
2022-09-04T23:35:15.885Z,1.85
2022-09-04T23:38:11.055Z,1.80
2022-09-04T23:40:46.773Z,1.70
2022-09-04T23:43:34.846Z,1.70
2022-09-04T23:46:35.531Z,1.63
2022-09-04T23:49:40.920Z,1.73
2022-09-04T23:52:52.555Z,1.65
2022-09-04T23:55:27.058Z,1.77
2022-09-04T23:58:51.476Z,1.90
